createdAt,value
2019-02-10T00:00:13.347Z,989.35
2019-02-10T00:01:13.321Z,989.38
2019-02-10T00:02:13.305Z,989.36
2019-02-10T00:03:13.280Z,989.40
2019-02-10T00:04:13.254Z,989.32
2019-02-10T00:05:13.228Z,989.24
2019-02-10T00:06:13.210Z,989.19
2019-02-10T00:07:13.182Z,989.08
2019-02-10T00:08:13.165Z,989.13
2019-02-10T00:09:13.134Z,989.21
2019-02-10T00:10:13.111Z,989.21
2019-02-10T00:11:13.086Z,989.08
2019-02-10T00:12:13.065Z,989.14
2019-02-10T00:13:13.040Z,989.13
2019-02-10T00:14:13.025Z,989.05
2019-02-10T00:15:13.950Z,989.12
2019-02-10T00:16:12.977Z,989.14
2019-02-10T00:17:12.955Z,989.13
2019-02-10T00:18:12.933Z,989.12
2019-02-10T00:19:12.907Z,989.13
2019-02-10T00:20:12.878Z,989.15
2019-02-10T00:21:12.852Z,989.11
2019-02-10T00:22:12.840Z,989.07
2019-02-10T00:23:12.813Z,989.15
2019-02-10T00:24:12.791Z,989.11
2019-02-10T00:25:12.759Z,989.02
2019-02-10T00:26:12.796Z,989.01
2019-02-10T00:27:12.717Z,988.93
2019-02-10T00:28:12.688Z,988.95
2019-02-10T00:29:12.669Z,988.97
2019-02-10T00:30:12.646Z,988.95
2019-02-10T00:31:12.625Z,988.96
2019-02-10T00:32:12.596Z,988.87
2019-02-10T00:33:12.571Z,988.95
2019-02-10T00:34:12.549Z,988.85
2019-02-10T00:35:12.529Z,988.85
2019-02-10T00:36:12.500Z,988.94
2019-02-10T00:37:12.483Z,988.79
2019-02-10T00:38:12.455Z,988.83
2019-02-10T00:39:12.435Z,988.80
2019-02-10T00:40:12.408Z,988.82
2019-02-10T00:41:12.397Z,988.81
2019-02-10T00:42:12.368Z,988.79
2019-02-10T00:43:12.353Z,988.69
2019-02-10T00:44:12.317Z,988.69
2019-02-10T00:45:12.298Z,988.67
2019-02-10T00:46:12.278Z,988.68
2019-02-10T00:47:12.253Z,988.71
2019-02-10T00:48:12.223Z,988.72
2019-02-10T00:49:12.200Z,988.73
2019-02-10T00:50:12.180Z,988.78
2019-02-10T00:51:12.159Z,988.82
2019-02-10T00:52:12.130Z,988.74
2019-02-10T00:53:12.110Z,988.79
2019-02-10T00:54:12.086Z,988.78
2019-02-10T00:55:12.060Z,988.78
2019-02-10T00:56:12.044Z,988.70
2019-02-10T00:57:12.021Z,988.67
2019-02-10T00:58:11.997Z,988.67
2019-02-10T00:59:11.974Z,988.66
2019-02-10T01:00:11.944Z,988.65
2019-02-10T01:01:11.931Z,988.57
2019-02-10T01:02:11.900Z,988.55
2019-02-10T01:03:11.884Z,988.52
2019-02-10T01:04:11.858Z,988.52
2019-02-10T01:05:11.829Z,988.51
2019-02-10T01:06:11.813Z,988.49
2019-02-10T01:07:11.784Z,988.50
2019-02-10T01:08:11.768Z,988.49
2019-02-10T01:09:11.743Z,988.43
2019-02-10T01:10:11.714Z,988.46
2019-02-10T01:11:11.698Z,988.44
2019-02-10T01:12:11.669Z,988.45
2019-02-10T01:13:11.646Z,988.40
2019-02-10T01:14:11.623Z,988.38
2019-02-10T01:15:11.605Z,988.35
2019-02-10T01:16:11.576Z,988.28
2019-02-10T01:17:11.559Z,988.26
2019-02-10T01:18:11.530Z,988.24
2019-02-10T01:19:11.511Z,988.22
2019-02-10T01:20:11.489Z,988.19
2019-02-10T01:21:11.465Z,988.15
2019-02-10T01:22:11.438Z,988.14
2019-02-10T01:23:11.422Z,988.13
2019-02-10T01:24:11.397Z,988.10
2019-02-10T01:25:11.369Z,988.08
2019-02-10T01:26:11.353Z,988.08
2019-02-10T01:27:11.324Z,988.05
2019-02-10T01:28:11.307Z,988.02
2019-02-10T01:29:11.283Z,988.06
2019-02-10T01:30:11.262Z,988.04
2019-02-10T01:31:11.234Z,988.03
2019-02-10T01:32:11.206Z,988.04
2019-02-10T01:33:11.183Z,988.01
2019-02-10T01:34:11.167Z,988.01
2019-02-10T01:35:11.135Z,987.97
2019-02-10T01:36:11.120Z,987.95
2019-02-10T01:37:11.097Z,987.93
2019-02-10T01:38:11.078Z,987.93
2019-02-10T01:39:11.046Z,987.83
2019-02-10T01:40:11.029Z,987.83
2019-02-10T01:41:11.002Z,987.77
2019-02-10T01:42:10.977Z,987.77
2019-02-10T01:43:10.950Z,987.76
2019-02-10T01:44:10.928Z,987.71
2019-02-10T01:45:10.905Z,987.70
2019-02-10T01:46:10.887Z,987.66
2019-02-10T01:47:10.861Z,987.65
2019-02-10T01:48:10.845Z,987.56
2019-02-10T01:49:10.820Z,987.57
2019-02-10T01:50:10.797Z,987.55
2019-02-10T01:51:10.766Z,987.49
2019-02-10T01:52:10.749Z,987.49
2019-02-10T01:53:10.727Z,987.41
2019-02-10T01:54:10.705Z,987.41
2019-02-10T01:55:10.686Z,987.36
2019-02-10T01:56:10.653Z,987.32
2019-02-10T01:57:10.628Z,987.28
2019-02-10T01:58:10.606Z,987.31
2019-02-10T01:59:10.584Z,987.25
2019-02-10T02:00:10.561Z,987.21
2019-02-10T02:01:10.542Z,987.21
2019-02-10T02:02:10.517Z,987.19
2019-02-10T02:03:10.498Z,987.17
2019-02-10T02:04:10.469Z,987.12
2019-02-10T02:05:10.450Z,987.11
2019-02-10T02:06:10.434Z,987.07
2019-02-10T02:07:10.419Z,987.03
2019-02-10T02:08:10.378Z,986.99
2019-02-10T02:09:10.362Z,987.00
2019-02-10T02:10:10.337Z,986.98
2019-02-10T02:11:10.307Z,986.98
2019-02-10T02:12:10.285Z,986.95
2019-02-10T02:13:10.265Z,986.93
2019-02-10T02:14:10.250Z,986.92
2019-02-10T02:15:10.216Z,986.94
2019-02-10T02:16:10.201Z,986.79
2019-02-10T02:17:10.174Z,986.78
2019-02-10T02:18:10.155Z,986.68
2019-02-10T02:19:10.133Z,986.60
2019-02-10T02:20:10.111Z,986.58
2019-02-10T02:21:10.084Z,986.48
2019-02-10T02:22:10.059Z,986.43
2019-02-10T02:23:10.039Z,986.37
2019-02-10T02:24:10.027Z,986.35
2019-02-10T02:25:09.991Z,986.31
2019-02-10T02:26:09.972Z,986.28
2019-02-10T02:27:09.949Z,986.25
2019-02-10T02:28:09.929Z,986.24
2019-02-10T02:29:09.905Z,986.18
2019-02-10T02:30:09.877Z,986.17
2019-02-10T02:31:09.863Z,986.16
2019-02-10T02:32:09.829Z,986.09
2019-02-10T02:33:09.819Z,986.10
2019-02-10T02:34:09.792Z,986.17
2019-02-10T02:35:09.761Z,986.18
2019-02-10T02:36:09.743Z,986.18
2019-02-10T02:37:09.724Z,986.21
2019-02-10T02:38:09.692Z,986.15
2019-02-10T02:39:09.670Z,986.18
2019-02-10T02:40:09.649Z,986.13
2019-02-10T02:41:09.621Z,986.15
2019-02-10T02:42:09.599Z,986.16
2019-02-10T02:43:09.583Z,986.12
2019-02-10T02:44:09.561Z,985.99
2019-02-10T02:45:09.542Z,985.92
2019-02-10T02:46:09.520Z,985.93
2019-02-10T02:47:09.490Z,985.96
2019-02-10T02:48:09.461Z,985.91
2019-02-10T02:49:09.439Z,985.89
2019-02-10T02:50:09.427Z,985.86
2019-02-10T02:51:09.402Z,985.86
2019-02-10T02:52:09.375Z,985.81
2019-02-10T02:53:09.355Z,985.82
2019-02-10T02:54:09.324Z,985.79
2019-02-10T02:55:09.314Z,985.78
2019-02-10T02:56:09.288Z,985.79
2019-02-10T02:57:09.273Z,985.76
2019-02-10T02:58:09.241Z,985.71
2019-02-10T02:59:09.218Z,985.69
2019-02-10T03:00:09.187Z,985.65
2019-02-10T03:01:09.167Z,985.60
2019-02-10T03:02:09.141Z,985.55
2019-02-10T03:03:09.125Z,985.58
2019-02-10T03:04:09.101Z,985.59
2019-02-10T03:05:09.078Z,985.57
2019-02-10T03:06:09.061Z,985.60
2019-02-10T03:07:17.449Z,985.58
2019-02-10T03:08:09.016Z,985.54
2019-02-10T03:09:08.982Z,985.52
2019-02-10T03:10:08.972Z,985.52
2019-02-10T03:11:08.934Z,985.46
2019-02-10T03:12:08.912Z,985.44
2019-02-10T03:13:08.890Z,985.33
2019-02-10T03:14:08.878Z,985.32
2019-02-10T03:15:08.844Z,985.23
2019-02-10T03:16:08.820Z,985.16
2019-02-10T03:17:08.797Z,985.11
2019-02-10T03:18:08.781Z,985.03
2019-02-10T03:19:08.752Z,985.02
2019-02-10T03:20:08.733Z,985.08
2019-02-10T03:21:08.714Z,985.05
2019-02-10T03:22:08.685Z,985.03
2019-02-10T03:23:08.661Z,984.87
2019-02-10T03:24:08.644Z,984.92
2019-02-10T03:25:08.629Z,984.97
2019-02-10T03:26:08.596Z,984.92
2019-02-10T03:27:08.573Z,984.84
2019-02-10T03:28:08.552Z,984.88
2019-02-10T03:29:08.529Z,984.93
2019-02-10T03:30:08.511Z,984.86
2019-02-10T03:31:08.490Z,984.84
2019-02-10T03:32:08.463Z,984.84
2019-02-10T03:33:08.441Z,984.80
2019-02-10T03:34:08.421Z,984.77
2019-02-10T03:35:08.387Z,984.75
2019-02-10T03:36:08.370Z,984.66
2019-02-10T03:37:08.341Z,984.54
2019-02-10T03:38:08.337Z,984.52
2019-02-10T03:39:08.305Z,984.46
2019-02-10T03:40:08.274Z,984.46
2019-02-10T03:41:08.254Z,984.42
2019-02-10T03:42:08.229Z,984.41
2019-02-10T03:43:08.210Z,984.42
2019-02-10T03:44:08.182Z,984.40
2019-02-10T03:45:08.161Z,984.37
2019-02-10T03:46:08.147Z,984.37
2019-02-10T03:47:08.115Z,984.38
2019-02-10T03:48:08.092Z,984.41
2019-02-10T03:49:08.069Z,984.28
2019-02-10T03:50:08.044Z,984.20
2019-02-10T03:51:08.029Z,984.25
2019-02-10T03:52:08.002Z,984.29
2019-02-10T03:53:07.979Z,984.26
2019-02-10T03:54:07.981Z,984.29
2019-02-10T03:55:07.934Z,984.16
2019-02-10T03:56:07.912Z,984.22
2019-02-10T03:57:07.887Z,984.01
2019-02-10T03:58:07.867Z,984.12
2019-02-10T03:59:07.841Z,984.13
2019-02-10T04:00:07.820Z,984.12
2019-02-10T04:01:07.800Z,984.06
2019-02-10T04:02:07.780Z,984.08
2019-02-10T04:03:07.762Z,984.04
2019-02-10T04:04:07.741Z,984.01
2019-02-10T04:05:07.705Z,984.02
2019-02-10T04:06:07.685Z,984.08
2019-02-10T04:07:07.679Z,984.05
2019-02-10T04:08:07.641Z,984.01
2019-02-10T04:09:07.620Z,984.01
2019-02-10T04:10:07.592Z,984.01
2019-02-10T04:11:07.576Z,983.97
2019-02-10T04:12:07.553Z,983.94
2019-02-10T04:13:07.527Z,983.94
2019-02-10T04:14:07.509Z,983.91
2019-02-10T04:15:07.480Z,983.90
2019-02-10T04:16:07.460Z,983.87
2019-02-10T04:17:07.438Z,983.90
2019-02-10T04:18:07.417Z,983.88
2019-02-10T04:19:07.392Z,983.82
2019-02-10T04:20:07.373Z,983.80
2019-02-10T04:21:07.347Z,983.78
2019-02-10T04:22:07.322Z,983.70
2019-02-10T04:23:07.302Z,983.66
2019-02-10T04:24:07.273Z,983.55
2019-02-10T04:25:07.252Z,983.58
2019-02-10T04:26:07.238Z,983.59
2019-02-10T04:27:07.213Z,983.54
2019-02-10T04:28:07.187Z,983.47
2019-02-10T04:29:07.161Z,983.45
2019-02-10T04:30:09.112Z,983.40
2019-02-10T04:31:07.116Z,983.37
2019-02-10T04:32:07.098Z,983.41
2019-02-10T04:33:07.072Z,983.42
2019-02-10T04:34:07.050Z,983.38
2019-02-10T04:35:07.033Z,983.36
2019-02-10T04:36:07.011Z,983.33
2019-02-10T04:37:06.986Z,983.33
2019-02-10T04:38:06.956Z,983.31
2019-02-10T04:39:06.945Z,983.27
2019-02-10T04:40:06.920Z,983.24
2019-02-10T04:41:06.893Z,983.21
2019-02-10T04:42:06.870Z,983.23
2019-02-10T04:43:06.848Z,983.24
2019-02-10T04:44:06.825Z,983.22
2019-02-10T04:45:06.804Z,983.17
2019-02-10T04:46:06.779Z,983.13
2019-02-10T04:47:06.774Z,983.15
2019-02-10T04:48:06.743Z,983.12
2019-02-10T04:49:06.717Z,983.11
2019-02-10T04:50:06.700Z,983.07
2019-02-10T04:51:06.668Z,983.10
2019-02-10T04:52:06.652Z,983.13
2019-02-10T04:53:06.630Z,983.13
2019-02-10T04:54:06.602Z,983.14
2019-02-10T04:55:06.579Z,983.12
2019-02-10T04:56:06.561Z,983.10
2019-02-10T04:57:06.546Z,983.02
2019-02-10T04:58:06.512Z,982.99
2019-02-10T04:59:06.487Z,982.98
2019-02-10T05:00:06.472Z,982.99
2019-02-10T05:01:06.449Z,982.95
2019-02-10T05:02:06.420Z,982.93
2019-02-10T05:03:06.400Z,982.93
2019-02-10T05:04:06.385Z,982.93
2019-02-10T05:05:06.353Z,982.88
2019-02-10T05:06:06.335Z,982.88
2019-02-10T05:07:06.315Z,982.86
2019-02-10T05:08:06.290Z,982.83
2019-02-10T05:09:06.267Z,982.75
2019-02-10T05:10:06.247Z,982.75
2019-02-10T05:11:06.225Z,982.70
2019-02-10T05:12:06.198Z,982.67
2019-02-10T05:13:06.197Z,982.63
2019-02-10T05:14:06.157Z,982.56
2019-02-10T05:15:06.141Z,982.42
2019-02-10T05:16:06.107Z,982.43
2019-02-10T05:17:06.085Z,982.43
2019-02-10T05:18:06.070Z,982.37
2019-02-10T05:19:06.037Z,982.34
2019-02-10T05:20:06.018Z,982.37
2019-02-10T05:21:06.005Z,982.33
2019-02-10T05:22:05.980Z,982.34
2019-02-10T05:23:05.959Z,982.30
2019-02-10T05:24:05.926Z,982.27
2019-02-10T05:25:05.903Z,982.25
2019-02-10T05:26:05.887Z,982.23
2019-02-10T05:27:05.865Z,982.25
2019-02-10T05:28:05.839Z,982.24
2019-02-10T05:29:05.824Z,982.23
2019-02-10T05:30:05.805Z,982.23
2019-02-10T05:31:05.766Z,982.16
2019-02-10T05:32:05.744Z,982.17
2019-02-10T05:33:05.729Z,982.18
2019-02-10T05:34:05.706Z,982.19
2019-02-10T05:35:05.683Z,982.16
2019-02-10T05:36:05.657Z,982.14
2019-02-10T05:37:05.629Z,982.14
2019-02-10T05:38:05.608Z,982.10
2019-02-10T05:39:05.594Z,982.06
2019-02-10T05:40:05.571Z,982.01
2019-02-10T05:41:05.548Z,982.00
2019-02-10T05:42:05.522Z,981.96
2019-02-10T05:43:05.499Z,981.88
2019-02-10T05:44:05.474Z,981.84
2019-02-10T05:45:05.448Z,981.82
2019-02-10T05:46:05.427Z,981.87
2019-02-10T05:47:05.406Z,981.71
2019-02-10T05:48:05.393Z,981.70
2019-02-10T05:49:05.358Z,981.74
2019-02-10T05:50:05.343Z,981.72
2019-02-10T05:51:05.313Z,981.71
2019-02-10T05:52:05.290Z,981.67
2019-02-10T05:53:05.275Z,981.66
2019-02-10T05:54:05.246Z,981.67
2019-02-10T05:55:05.225Z,981.71
2019-02-10T05:56:05.201Z,981.63
2019-02-10T05:57:05.182Z,981.61
2019-02-10T05:58:05.153Z,981.54
2019-02-10T05:59:05.132Z,981.50
2019-02-10T06:00:05.113Z,981.49
2019-02-10T06:01:05.085Z,981.41
2019-02-10T06:02:05.061Z,981.42
2019-02-10T06:03:05.046Z,981.44
2019-02-10T06:04:05.014Z,981.37
2019-02-10T06:05:04.996Z,981.28
2019-02-10T06:06:04.968Z,981.36
2019-02-10T06:07:04.946Z,981.36
2019-02-10T06:08:13.147Z,981.33
2019-02-10T06:09:04.900Z,981.24
2019-02-10T06:10:04.904Z,981.27
2019-02-10T06:11:04.856Z,981.27
2019-02-10T06:12:04.834Z,981.16
2019-02-10T06:13:04.814Z,981.17
2019-02-10T06:14:04.788Z,981.13
2019-02-10T06:15:04.769Z,981.08
2019-02-10T06:16:04.746Z,981.09
2019-02-10T06:17:04.724Z,981.12
2019-02-10T06:18:04.708Z,981.07
2019-02-10T06:19:04.673Z,981.02
2019-02-10T06:20:04.651Z,980.99
2019-02-10T06:21:04.628Z,981.05
2019-02-10T06:22:04.610Z,980.97
2019-02-10T06:23:04.586Z,980.96
2019-02-10T06:24:04.583Z,980.97
2019-02-10T06:25:04.542Z,980.98
2019-02-10T06:26:04.520Z,980.91
2019-02-10T06:27:04.497Z,980.90
2019-02-10T06:28:04.468Z,980.86
2019-02-10T06:29:04.446Z,980.97
2019-02-10T06:30:04.426Z,980.96
2019-02-10T06:31:04.400Z,980.86
2019-02-10T06:32:04.387Z,980.87
2019-02-10T06:33:04.362Z,980.86
2019-02-10T06:34:04.340Z,980.85
2019-02-10T06:35:04.310Z,980.80
2019-02-10T06:36:04.295Z,980.76
2019-02-10T06:37:04.266Z,980.80
2019-02-10T06:38:04.247Z,980.71
2019-02-10T06:39:04.225Z,980.70
2019-02-10T06:40:04.203Z,980.69
2019-02-10T06:41:04.174Z,980.68
2019-02-10T06:42:04.162Z,980.59
2019-02-10T06:43:04.133Z,980.70
2019-02-10T06:44:04.107Z,980.61
2019-02-10T06:45:04.091Z,980.65
2019-02-10T06:46:04.059Z,980.57
2019-02-10T06:47:04.043Z,980.60
2019-02-10T06:48:04.015Z,980.56
2019-02-10T06:49:03.994Z,980.52
2019-02-10T06:50:03.978Z,980.53
2019-02-10T06:51:03.955Z,980.55
2019-02-10T06:52:03.925Z,980.50
2019-02-10T06:53:03.926Z,980.48
2019-02-10T06:54:03.883Z,980.50
2019-02-10T06:55:03.861Z,980.55
2019-02-10T06:56:03.835Z,980.49
2019-02-10T06:57:03.814Z,980.44
2019-02-10T06:58:03.791Z,980.39
2019-02-10T06:59:03.776Z,980.40
2019-02-10T07:00:03.745Z,980.37
2019-02-10T07:01:03.721Z,980.34
2019-02-10T07:02:03.718Z,980.37
2019-02-10T07:03:03.676Z,980.30
2019-02-10T07:04:03.660Z,980.23
2019-02-10T07:05:03.644Z,980.14
2019-02-10T07:06:03.620Z,980.16
2019-02-10T07:07:03.592Z,980.10
2019-02-10T07:08:03.571Z,980.08
2019-02-10T07:09:03.545Z,980.04
2019-02-10T07:10:03.528Z,980.03
2019-02-10T07:11:03.500Z,979.96
2019-02-10T07:12:03.475Z,979.89
2019-02-10T07:13:03.452Z,979.86
2019-02-10T07:14:03.433Z,979.82
2019-02-10T07:15:03.415Z,979.69
2019-02-10T07:16:03.390Z,979.65
2019-02-10T07:17:03.361Z,979.59
2019-02-10T07:18:03.338Z,979.47
2019-02-10T07:19:03.319Z,979.60
2019-02-10T07:20:03.292Z,979.55
2019-02-10T07:21:03.293Z,979.48
2019-02-10T07:22:03.246Z,979.38
2019-02-10T07:23:03.221Z,979.26
2019-02-10T07:24:03.203Z,979.30
2019-02-10T07:25:03.178Z,979.15
2019-02-10T07:26:03.196Z,979.20
2019-02-10T07:27:03.141Z,979.09
2019-02-10T07:28:03.126Z,978.94
2019-02-10T07:29:03.094Z,978.94
2019-02-10T07:30:03.067Z,978.98
2019-02-10T07:31:03.046Z,979.03
2019-02-10T07:32:03.046Z,978.98
2019-02-10T07:33:02.999Z,979.03
2019-02-10T07:34:02.988Z,978.95
2019-02-10T07:35:02.964Z,979.00
2019-02-10T07:36:02.938Z,978.86
2019-02-10T07:37:02.910Z,978.78
2019-02-10T07:38:02.891Z,978.86
2019-02-10T07:39:02.871Z,978.97
2019-02-10T07:40:02.848Z,978.89
2019-02-10T07:41:02.819Z,978.89
2019-02-10T07:42:02.807Z,978.75
2019-02-10T07:43:02.771Z,978.59
2019-02-10T07:44:02.752Z,978.75
2019-02-10T07:45:02.734Z,978.73
2019-02-10T07:46:02.704Z,978.70
2019-02-10T07:47:02.684Z,978.66
2019-02-10T07:48:02.659Z,978.70
2019-02-10T07:49:02.643Z,978.68
2019-02-10T07:50:02.616Z,978.55
2019-02-10T07:51:02.594Z,978.52
2019-02-10T07:52:02.571Z,978.52
2019-02-10T07:53:02.549Z,978.60
2019-02-10T07:54:03.690Z,978.74
2019-02-10T07:55:02.504Z,978.73
2019-02-10T07:56:02.483Z,978.66
2019-02-10T07:57:02.459Z,978.69
2019-02-10T07:58:02.437Z,978.64
2019-02-10T07:59:02.421Z,978.64
2019-02-10T08:00:02.399Z,978.59
2019-02-10T08:01:02.388Z,978.58
2019-02-10T08:02:02.347Z,978.48
2019-02-10T08:03:02.368Z,978.57
2019-02-10T08:04:02.315Z,978.47
2019-02-10T08:05:02.289Z,978.69
2019-02-10T08:06:02.261Z,978.55
2019-02-10T08:07:02.241Z,978.55
2019-02-10T08:08:02.236Z,978.58
2019-02-10T08:09:02.190Z,978.63
2019-02-10T08:10:02.178Z,978.62
2019-02-10T08:11:02.157Z,978.64
2019-02-10T08:12:02.133Z,978.65
2019-02-10T08:13:02.126Z,978.62
2019-02-10T08:14:02.094Z,978.64
2019-02-10T08:15:02.066Z,978.72
2019-02-10T08:16:02.060Z,978.74
2019-02-10T08:17:02.023Z,978.73
2019-02-10T08:18:01.998Z,978.69
2019-02-10T08:19:01.978Z,978.80
2019-02-10T08:20:01.959Z,978.74
2019-02-10T08:21:01.936Z,978.78
2019-02-10T08:22:01.920Z,978.71
2019-02-10T08:23:01.893Z,978.65
2019-02-10T08:24:01.873Z,978.63
2019-02-10T08:25:01.847Z,978.74
2019-02-10T08:26:01.828Z,978.71
2019-02-10T08:27:01.807Z,978.66
2019-02-10T08:28:01.784Z,978.58
2019-02-10T08:29:01.778Z,978.68
2019-02-10T08:30:01.744Z,978.71
2019-02-10T08:31:01.742Z,978.46
2019-02-10T08:32:01.700Z,978.58
2019-02-10T08:33:01.702Z,978.49
2019-02-10T08:34:01.663Z,978.52
2019-02-10T08:35:01.656Z,978.52
2019-02-10T08:36:01.621Z,978.43
2019-02-10T08:37:01.599Z,978.48
2019-02-10T08:38:01.581Z,978.48
2019-02-10T08:39:01.557Z,978.39
2019-02-10T08:40:01.539Z,978.44
2019-02-10T08:41:01.523Z,978.38
2019-02-10T08:42:01.487Z,978.37
2019-02-10T08:43:01.474Z,978.42
2019-02-10T08:44:01.452Z,978.40
2019-02-10T08:45:01.441Z,978.40
2019-02-10T08:46:01.404Z,978.35
2019-02-10T08:47:01.388Z,978.29
2019-02-10T08:48:01.369Z,978.30
2019-02-10T08:49:01.346Z,978.36
2019-02-10T08:50:01.324Z,978.19
2019-02-10T08:51:01.299Z,978.34
2019-02-10T08:52:01.286Z,978.22
2019-02-10T08:53:01.257Z,978.11
2019-02-10T08:54:01.241Z,978.10
2019-02-10T08:55:02.490Z,978.13
2019-02-10T08:56:01.191Z,978.14
2019-02-10T08:57:01.172Z,978.03
2019-02-10T08:58:01.156Z,978.12
2019-02-10T08:59:01.135Z,977.99
2019-02-10T09:00:01.115Z,978.00
2019-02-10T09:01:01.088Z,977.91
2019-02-10T09:02:01.063Z,977.92
2019-02-10T09:03:01.053Z,977.85
2019-02-10T09:04:01.023Z,977.84
2019-02-10T09:05:01.000Z,977.79
2019-02-10T09:06:00.980Z,977.86
2019-02-10T09:07:00.962Z,977.76
2019-02-10T09:08:00.953Z,977.74
2019-02-10T09:09:02.694Z,977.69
2019-02-10T09:10:00.909Z,977.71
2019-02-10T09:11:00.875Z,977.64
2019-02-10T09:12:00.859Z,977.64
2019-02-10T09:13:00.840Z,977.49
2019-02-10T09:14:00.819Z,977.58
2019-02-10T09:15:00.790Z,977.39
2019-02-10T09:16:00.771Z,977.47
2019-02-10T09:17:00.750Z,977.26
2019-02-10T09:18:00.742Z,977.36
2019-02-10T09:19:00.710Z,977.29
2019-02-10T09:20:00.684Z,977.36
2019-02-10T09:21:00.669Z,977.33
2019-02-10T09:22:00.646Z,977.19
2019-02-10T09:23:00.630Z,977.21
2019-02-10T09:24:00.606Z,977.20
2019-02-10T09:25:00.589Z,977.09
2019-02-10T09:26:00.562Z,977.09
2019-02-10T09:27:00.548Z,977.07
2019-02-10T09:28:00.526Z,977.05
2019-02-10T09:29:00.500Z,977.06
2019-02-10T09:30:00.478Z,976.98
2019-02-10T09:31:00.459Z,977.02
2019-02-10T09:32:00.445Z,976.98
2019-02-10T09:33:00.419Z,976.96
2019-02-10T09:34:00.404Z,976.90
2019-02-10T09:35:00.376Z,976.97
2019-02-10T09:36:01.312Z,976.85
2019-02-10T09:37:00.334Z,976.87
2019-02-10T09:38:00.320Z,976.91
2019-02-10T09:39:00.299Z,976.82
2019-02-10T09:40:00.278Z,976.80
2019-02-10T09:41:00.258Z,976.80
2019-02-10T09:42:00.230Z,976.78
2019-02-10T09:43:00.217Z,976.79
2019-02-10T09:44:00.191Z,976.73
2019-02-10T09:45:00.206Z,976.82
2019-02-10T09:46:00.155Z,976.73
2019-02-10T09:47:00.131Z,976.77
2019-02-10T09:48:00.112Z,976.76
2019-02-10T09:49:00.095Z,976.76
2019-02-10T09:50:00.257Z,976.68
2019-02-10T09:51:00.050Z,976.76
2019-02-10T09:52:00.031Z,976.67
2019-02-10T09:53:00.015Z,976.70
2019-02-10T09:53:59.997Z,976.65
2019-02-10T09:54:59.967Z,976.55
2019-02-10T09:55:59.948Z,976.52
2019-02-10T09:56:59.932Z,976.53
2019-02-10T09:57:59.909Z,976.48
2019-02-10T09:58:59.887Z,976.55
2019-02-10T09:59:59.867Z,976.50
2019-02-10T10:00:59.856Z,976.54
2019-02-10T10:01:59.832Z,976.48
2019-02-10T10:02:59.807Z,976.48
2019-02-10T10:03:59.795Z,976.49
2019-02-10T10:04:59.774Z,976.44
2019-02-10T10:05:59.746Z,976.40
2019-02-10T10:06:59.730Z,976.31
2019-02-10T10:07:59.704Z,976.39
2019-02-10T10:08:59.692Z,976.17
2019-02-10T10:09:59.668Z,976.28
2019-02-10T10:10:59.644Z,976.23
2019-02-10T10:11:59.626Z,976.17
2019-02-10T10:12:59.605Z,976.25
2019-02-10T10:13:59.586Z,976.20
2019-02-10T10:14:59.566Z,976.20
2019-02-10T10:15:59.553Z,976.21
2019-02-10T10:16:59.525Z,976.25
2019-02-10T10:17:59.505Z,976.20
2019-02-10T10:18:59.479Z,976.21
2019-02-10T10:19:59.472Z,976.13
2019-02-10T10:20:59.447Z,976.12
2019-02-10T10:21:59.423Z,976.22
2019-02-10T10:22:59.408Z,976.18
2019-02-10T10:23:59.381Z,976.13
2019-02-10T10:25:00.600Z,976.11
2019-02-10T10:25:59.346Z,976.12
2019-02-10T10:26:59.327Z,976.11
2019-02-10T10:27:59.305Z,976.06
2019-02-10T10:28:59.279Z,976.01
2019-02-10T10:29:59.260Z,975.98
2019-02-10T10:30:59.244Z,976.08
2019-02-10T10:31:59.222Z,976.06
2019-02-10T10:32:59.206Z,976.10
2019-02-10T10:33:59.184Z,976.05
2019-02-10T10:34:59.165Z,976.11
2019-02-10T10:35:59.139Z,975.99
2019-02-10T10:36:59.119Z,975.96
2019-02-10T10:37:59.104Z,975.96
2019-02-10T10:38:59.079Z,975.96
2019-02-10T10:39:59.056Z,975.95
2019-02-10T10:40:59.037Z,975.93
2019-02-10T10:41:59.017Z,975.97
2019-02-10T10:42:58.995Z,975.87
2019-02-10T10:43:58.982Z,975.87
2019-02-10T10:44:58.963Z,975.73
2019-02-10T10:46:00.693Z,975.76
2019-02-10T10:46:58.918Z,975.72
2019-02-10T10:47:58.903Z,975.86
2019-02-10T10:48:58.880Z,975.68
2019-02-10T10:49:58.857Z,975.75
2019-02-10T10:50:58.840Z,975.82
2019-02-10T10:51:58.819Z,975.77
2019-02-10T10:52:58.792Z,975.75
2019-02-10T10:53:58.778Z,975.60
2019-02-10T10:54:58.753Z,975.56
2019-02-10T10:55:58.740Z,975.63
2019-02-10T10:56:58.718Z,975.61
2019-02-10T10:57:58.698Z,975.52
2019-02-10T10:58:58.670Z,975.45
2019-02-10T10:59:58.651Z,975.49
2019-02-10T11:00:58.631Z,975.41
2019-02-10T11:01:58.606Z,975.37
2019-02-10T11:02:58.591Z,975.37
2019-02-10T11:03:58.565Z,975.38
2019-02-10T11:04:58.546Z,975.33
2019-02-10T11:05:58.526Z,975.37
2019-02-10T11:06:58.508Z,975.26
2019-02-10T11:07:58.481Z,975.22
2019-02-10T11:08:58.466Z,975.21
2019-02-10T11:09:58.446Z,975.20
2019-02-10T11:10:58.423Z,975.17
2019-02-10T11:11:58.404Z,975.14
2019-02-10T11:12:58.378Z,975.03
2019-02-10T11:13:58.359Z,975.07
2019-02-10T11:14:58.339Z,974.96
2019-02-10T11:15:58.314Z,975.09
2019-02-10T11:16:58.294Z,974.96
2019-02-10T11:17:58.279Z,974.97
2019-02-10T11:18:58.262Z,974.90
2019-02-10T11:19:58.228Z,974.97
2019-02-10T11:20:58.216Z,974.88
2019-02-10T11:21:58.190Z,974.98
2019-02-10T11:22:58.174Z,975.03
2019-02-10T11:23:58.158Z,975.04
2019-02-10T11:24:58.126Z,974.93
2019-02-10T11:25:58.112Z,974.92
2019-02-10T11:26:58.083Z,975.03
2019-02-10T11:27:58.062Z,974.96
2019-02-10T11:28:58.043Z,974.70
2019-02-10T11:29:58.026Z,974.85
2019-02-10T11:30:58.005Z,974.80
2019-02-10T11:31:58.017Z,974.80
2019-02-10T11:32:57.962Z,974.78
2019-02-10T11:33:57.934Z,974.79
2019-02-10T11:34:57.918Z,974.84
2019-02-10T11:35:57.883Z,974.73
2019-02-10T11:36:57.873Z,974.80
2019-02-10T11:37:57.880Z,974.77
2019-02-10T11:38:57.831Z,974.71
2019-02-10T11:39:57.804Z,974.76
2019-02-10T11:40:57.787Z,974.80
2019-02-10T11:41:57.770Z,974.80
2019-02-10T11:42:57.747Z,974.68
2019-02-10T11:43:57.726Z,974.74
2019-02-10T11:44:57.705Z,974.56
2019-02-10T11:45:57.679Z,974.61
2019-02-10T11:46:57.657Z,974.68
2019-02-10T11:47:57.635Z,974.60
2019-02-10T11:48:57.612Z,974.67
2019-02-10T11:49:57.605Z,974.50
2019-02-10T11:50:57.577Z,974.64
2019-02-10T11:51:57.548Z,974.57
2019-02-10T11:52:57.531Z,974.57
2019-02-10T11:53:57.507Z,974.25
2019-02-10T11:54:57.495Z,974.46
2019-02-10T11:55:57.472Z,974.44
2019-02-10T11:56:57.442Z,974.42
2019-02-10T11:57:57.421Z,974.37
2019-02-10T11:58:57.417Z,974.40
2019-02-10T11:59:57.378Z,974.33
2019-02-10T12:00:57.355Z,974.54
2019-02-10T12:01:57.340Z,974.27
2019-02-10T12:02:57.314Z,974.56
2019-02-10T12:03:57.292Z,974.25
2019-02-10T12:04:57.273Z,974.24
2019-02-10T12:05:57.250Z,974.39
2019-02-10T12:06:57.231Z,974.25
2019-02-10T12:07:57.214Z,974.38
2019-02-10T12:08:57.189Z,974.32
2019-02-10T12:09:57.167Z,974.24
2019-02-10T12:10:57.144Z,974.29
2019-02-10T12:11:57.132Z,974.14
2019-02-10T12:12:57.102Z,974.24
2019-02-10T12:13:57.087Z,974.20
2019-02-10T12:14:57.058Z,974.22
2019-02-10T12:15:57.038Z,974.17
2019-02-10T12:16:57.024Z,974.20
2019-02-10T12:17:57.004Z,974.17
2019-02-10T12:18:56.973Z,974.20
2019-02-10T12:19:56.960Z,974.38
2019-02-10T12:20:56.938Z,974.15
2019-02-10T12:21:56.910Z,974.11
2019-02-10T12:22:56.897Z,974.17
2019-02-10T12:23:56.887Z,974.21
2019-02-10T12:24:56.845Z,974.24
2019-02-10T12:25:56.829Z,974.15
2019-02-10T12:26:56.807Z,974.27
2019-02-10T12:27:56.785Z,974.14